createdAt,value
2017-07-31T00:00:01.140Z,68.1
2017-07-31T00:01:00.743Z,68.3
2017-07-31T00:01:59.703Z,68.4
2017-07-31T00:02:59.782Z,68.6
2017-07-31T00:03:58.995Z,68.5
2017-07-31T00:04:58.071Z,68.5
2017-07-31T00:05:57.778Z,68.4
2017-07-31T00:06:57.357Z,68.3
2017-07-31T00:07:56.562Z,68.2
2017-07-31T00:08:55.753Z,68.1
2017-07-31T00:09:55.466Z,68.1
2017-07-31T00:10:54.550Z,68.1
2017-07-31T00:11:25.085Z,68.1
2017-07-31T00:11:55.487Z,68.1
2017-07-31T00:12:53.562Z,68
2017-07-31T00:13:52.766Z,67.9
2017-07-31T00:14:52.502Z,68
2017-07-31T00:15:51.589Z,68.1
2017-07-31T00:16:51.183Z,68.1
2017-07-31T00:17:50.400Z,68.3
2017-07-31T00:18:50.104Z,68.6
2017-07-31T00:19:49.213Z,68.8
2017-07-31T00:20:48.952Z,69
2017-07-31T00:21:48.155Z,69.3
2017-07-31T00:22:18.552Z,69.3
2017-07-31T00:22:49.327Z,69.4
2017-07-31T00:23:19.603Z,69.4
2017-07-31T00:24:46.514Z,69.3
2017-07-31T00:25:45.609Z,69.6
2017-07-31T00:26:45.317Z,69.5
2017-07-31T00:27:44.520Z,69.6
2017-07-31T00:28:44.113Z,69.6
2017-07-31T00:29:43.318Z,69.6
2017-07-31T00:30:42.293Z,69.6
2017-07-31T00:31:41.894Z,69.6
2017-07-31T00:32:41.487Z,69.5
2017-07-31T00:34:40.240Z,69.5
2017-07-31T00:35:39.830Z,69.4
2017-07-31T00:36:39.046Z,69.2
2017-07-31T00:37:38.249Z,69
2017-07-31T00:38:37.839Z,69.3
2017-07-31T00:39:37.049Z,69.5
2017-07-31T00:40:36.392Z,69.6
2017-07-31T00:41:36.097Z,69.4
2017-07-31T00:42:35.304Z,69.2
2017-07-31T00:43:34.898Z,68.7
2017-07-31T00:44:34.104Z,68.3
2017-07-31T00:45:33.691Z,68.3
2017-07-31T00:46:32.893Z,68.3
2017-07-31T00:47:32.097Z,68.3
2017-07-31T00:48:31.809Z,68.2
2017-07-31T00:49:31.006Z,67.9
2017-07-31T00:50:30.203Z,67.7
2017-07-31T00:51:29.790Z,67.4
2017-07-31T00:52:29.377Z,66.9
2017-07-31T00:53:28.458Z,66.8
2017-07-31T00:54:28.157Z,66.8
2017-07-31T00:55:27.378Z,66.2
2017-07-31T00:56:26.462Z,66.3
2017-07-31T00:57:26.162Z,66.2
2017-07-31T00:58:25.351Z,66.3
2017-07-31T00:59:25.089Z,66.4
2017-07-31T01:00:24.173Z,66.3
2017-07-31T01:01:23.376Z,66.1
2017-07-31T01:02:22.964Z,66.2
2017-07-31T01:03:22.168Z,66.2
2017-07-31T01:04:21.867Z,66.2
2017-07-31T01:05:21.062Z,66.2
2017-07-31T01:06:20.649Z,65.7
2017-07-31T01:07:19.852Z,65.8
2017-07-31T01:08:19.049Z,65.7
2017-07-31T01:10:18.139Z,65.3
2017-07-31T01:11:17.338Z,64.5
2017-07-31T01:12:17.039Z,64.2
2017-07-31T01:13:16.128Z,64.2
2017-07-31T01:14:15.827Z,63.8
2017-07-31T01:15:15.039Z,63.3
2017-07-31T01:16:14.250Z,63.5
2017-07-31T01:17:13.951Z,63.3
2017-07-31T01:18:13.045Z,63.5
2017-07-31T01:19:12.517Z,63.2
2017-07-31T01:19:43.024Z,63.2
2017-07-31T01:20:13.410Z,63
2017-07-31T01:20:43.929Z,63
2017-07-31T01:22:10.816Z,63.1
2017-07-31T01:23:10.016Z,62.9
2017-07-31T01:24:09.217Z,63
2017-07-31T01:25:08.933Z,63.1
2017-07-31T01:26:08.403Z,62.8
2017-07-31T01:27:07.490Z,62.9
2017-07-31T01:28:07.205Z,62.9
2017-07-31T01:29:06.306Z,63.1
2017-07-31T01:30:05.665Z,63
2017-07-31T01:30:35.947Z,63
2017-07-31T01:31:06.346Z,63
2017-07-31T01:31:36.862Z,63
2017-07-31T01:32:07.261Z,63.4
2017-07-31T01:32:37.647Z,63.4
2017-07-31T01:34:03.020Z,64.1
2017-07-31T01:35:02.617Z,64.2
2017-07-31T01:36:02.210Z,64.1
2017-07-31T01:37:01.173Z,65.2
2017-07-31T01:38:00.759Z,65.6
2017-07-31T01:38:59.845Z,65.6
2017-07-31T01:39:59.831Z,65.6
2017-07-31T01:40:59.614Z,65.1
2017-07-31T01:41:58.209Z,64.9
2017-07-31T01:42:57.908Z,65.2
2017-07-31T01:43:57.101Z,65
2017-07-31T01:44:56.679Z,64.9
2017-07-31T01:45:55.873Z,64.8
2017-07-31T01:46:55.082Z,64.7
2017-07-31T01:47:54.785Z,64.8
2017-07-31T01:48:53.884Z,64.8
2017-07-31T01:49:24.407Z,64.8
2017-07-31T01:49:54.935Z,65.1
2017-07-31T01:50:25.222Z,65.1
2017-07-31T01:51:52.110Z,65.1
2017-07-31T01:52:51.824Z,65.1
2017-07-31T01:53:50.913Z,64.9
2017-07-31T01:54:50.116Z,65
2017-07-31T01:55:49.827Z,64.8
2017-07-31T01:56:49.032Z,64.8
2017-07-31T01:57:48.611Z,64.8
2017-07-31T01:58:47.827Z,65.1
2017-07-31T01:59:47.418Z,65.1
2017-07-31T02:00:46.616Z,65.4
2017-07-31T02:01:45.815Z,65.8
2017-07-31T02:02:45.389Z,65.9
2017-07-31T02:03:44.470Z,66
2017-07-31T02:05:43.207Z,66.4
2017-07-31T02:06:42.687Z,66.7
2017-07-31T02:07:42.143Z,67
2017-07-31T02:08:41.856Z,67
2017-07-31T02:09:41.056Z,66.5
2017-07-31T02:10:40.637Z,66.5
2017-07-31T02:11:39.849Z,65.8
2017-07-31T02:12:10.354Z,65.8
2017-07-31T02:12:40.874Z,65.6
2017-07-31T02:13:11.396Z,65.6
2017-07-31T02:13:41.913Z,65.7
2017-07-31T02:14:12.299Z,65.7
2017-07-31T02:15:37.179Z,65.6
2017-07-31T02:17:36.035Z,65.8
2017-07-31T02:18:35.618Z,65.9
2017-07-31T02:19:34.841Z,65.5
2017-07-31T02:20:34.428Z,65.4
2017-07-31T02:21:33.628Z,65.4
2017-07-31T02:22:32.829Z,65.6
2017-07-31T02:23:32.415Z,65.5
2017-07-31T02:24:31.620Z,65.5
2017-07-31T02:25:31.335Z,65.4
2017-07-31T02:26:30.548Z,65.4
2017-07-31T02:27:29.744Z,65.4
2017-07-31T02:28:29.332Z,65.7
2017-07-31T02:29:28.924Z,65.7
2017-07-31T02:30:27.909Z,65.9
2017-07-31T02:31:27.609Z,65.8
2017-07-31T02:32:26.699Z,65.8
2017-07-31T02:33:26.168Z,65.9
2017-07-31T02:34:25.259Z,66.1
2017-07-31T02:35:24.959Z,66
2017-07-31T02:36:24.549Z,66
2017-07-31T02:37:23.761Z,67
2017-07-31T02:38:22.960Z,67
2017-07-31T02:39:22.645Z,68.1
2017-07-31T02:40:21.837Z,68.5
2017-07-31T02:41:21.035Z,68.7
2017-07-31T02:42:20.617Z,69.2
2017-07-31T02:43:19.681Z,69.2
2017-07-31T02:45:18.537Z,70.1
2017-07-31T02:46:18.235Z,70.2
2017-07-31T02:47:17.424Z,70.2
2017-07-31T02:48:17.001Z,70.4
2017-07-31T02:49:16.078Z,70.4
2017-07-31T02:50:15.770Z,70.4
2017-07-31T02:51:14.852Z,70.7
2017-07-31T02:52:14.421Z,70.8
2017-07-31T02:53:13.514Z,71.2
2017-07-31T02:54:13.218Z,71.5
2017-07-31T02:55:12.669Z,71.8
2017-07-31T02:56:11.868Z,72
2017-07-31T02:57:11.320Z,72.4
2017-07-31T02:58:10.509Z,72.4
2017-07-31T02:59:10.210Z,72.5
2017-07-31T02:59:40.599Z,72.5
2017-07-31T03:00:11.098Z,72.4
2017-07-31T03:00:41.490Z,72.4
2017-07-31T03:01:11.994Z,72.5
2017-07-31T03:01:42.384Z,72.5
2017-07-31T03:02:12.778Z,72.5
2017-07-31T03:03:07.449Z,72.7
2017-07-31T03:04:07.039Z,72.8
2017-07-31T03:05:06.721Z,72.9
2017-07-31T03:06:05.910Z,72.8
2017-07-31T03:08:04.369Z,72.8
2017-07-31T03:09:03.951Z,72.9
2017-07-31T03:10:02.909Z,73
2017-07-31T03:11:02.866Z,72.9
2017-07-31T03:12:01.818Z,73
2017-07-31T03:13:01.510Z,73.1
2017-07-31T03:14:00.711Z,73.1
2017-07-31T03:15:00.296Z,73.2
2017-07-31T03:15:59.362Z,73.2
2017-07-31T03:16:59.069Z,73.1
2017-07-31T03:17:58.263Z,73.1
2017-07-31T03:18:57.959Z,73.2
2017-07-31T03:19:57.167Z,73.1
2017-07-31T03:20:56.369Z,73.2
2017-07-31T03:21:26.898Z,73.2
2017-07-31T03:21:57.405Z,73.1
2017-07-31T03:22:27.922Z,73.1
2017-07-31T03:23:54.427Z,73.2
2017-07-31T03:24:53.766Z,73.2
2017-07-31T03:25:53.104Z,73.2
2017-07-31T03:26:52.824Z,73.2
2017-07-31T03:27:52.026Z,73.3
2017-07-31T03:28:51.617Z,73.5
2017-07-31T03:29:50.824Z,73.7
2017-07-31T03:30:50.021Z,73.8
2017-07-31T03:31:49.740Z,73.9
2017-07-31T03:32:48.937Z,73.8
2017-07-31T03:33:48.138Z,74
2017-07-31T03:34:47.842Z,74
2017-07-31T03:35:47.187Z,74.2
2017-07-31T03:36:46.383Z,74.2
2017-07-31T03:37:46.100Z,74.2
2017-07-31T03:38:45.176Z,74.2
2017-07-31T03:39:44.761Z,74.2
2017-07-31T03:40:15.148Z,74.2
2017-07-31T03:40:45.539Z,74.1
2017-07-31T03:41:16.037Z,74.1
2017-07-31T03:41:46.551Z,74.1
2017-07-31T03:42:16.956Z,74.1
2017-07-31T03:43:42.213Z,74
2017-07-31T03:44:41.311Z,74.2
2017-07-31T03:45:40.905Z,74.2
2017-07-31T03:46:39.868Z,74.3
2017-07-31T03:47:39.316Z,74.6
2017-07-31T03:48:38.780Z,74.6
2017-07-31T03:49:38.353Z,74.7
2017-07-31T03:50:37.824Z,74.7
2017-07-31T03:51:37.015Z,74.8
2017-07-31T03:52:07.280Z,74.8
2017-07-31T03:52:37.674Z,75
2017-07-31T03:53:07.939Z,75
2017-07-31T03:53:38.444Z,75
2017-07-31T03:54:08.836Z,75
2017-07-31T03:54:39.332Z,75.1
2017-07-31T03:55:09.716Z,75.1
2017-07-31T03:56:34.080Z,75.6
2017-07-31T03:57:33.283Z,75.6
2017-07-31T03:58:32.476Z,75.7
2017-07-31T03:59:32.174Z,75.7
2017-07-31T04:00:31.257Z,75.7
2017-07-31T04:01:30.948Z,75.7
2017-07-31T04:02:30.139Z,75.6
2017-07-31T04:03:29.338Z,75.5
2017-07-31T04:04:29.040Z,75.6
2017-07-31T04:05:28.234Z,75.9
2017-07-31T04:06:27.422Z,75.9
2017-07-31T04:07:27.115Z,75.9
2017-07-31T04:08:26.079Z,75.9
2017-07-31T04:09:25.661Z,75.9
2017-07-31T04:10:25.354Z,75.9
2017-07-31T04:11:24.543Z,75.8
2017-07-31T04:12:23.628Z,75.8
2017-07-31T04:13:23.336Z,75.9
2017-07-31T04:14:22.535Z,75.9
2017-07-31T04:15:21.722Z,75.9
2017-07-31T04:16:21.453Z,75.8
2017-07-31T04:17:20.527Z,75.7
2017-07-31T04:18:20.106Z,75.7
2017-07-31T04:19:19.305Z,75.7
2017-07-31T04:20:18.876Z,75.8
2017-07-31T04:21:17.957Z,75.7
2017-07-31T04:22:17.660Z,75.7
2017-07-31T04:23:16.735Z,75.5
2017-07-31T04:24:16.431Z,75.2
2017-07-31T04:25:15.515Z,75.2
2017-07-31T04:26:14.999Z,74.9
2017-07-31T04:27:13.980Z,74.8
2017-07-31T04:28:13.670Z,74.6
2017-07-31T04:29:12.851Z,74.5
2017-07-31T04:30:12.432Z,74.5
2017-07-31T04:31:12.014Z,74.5
2017-07-31T04:32:11.213Z,74.5
2017-07-31T04:33:10.411Z,74.5
2017-07-31T04:34:10.105Z,74.4
2017-07-31T04:34:40.603Z,74.4
2017-07-31T04:35:10.874Z,74.3
2017-07-31T04:35:41.388Z,74.3
2017-07-31T04:37:08.146Z,74.2
2017-07-31T04:38:07.115Z,74.2
2017-07-31T04:40:06.214Z,74.1
2017-07-31T04:41:05.414Z,74.2
2017-07-31T04:42:04.602Z,74.2
2017-07-31T04:43:04.068Z,74.2
2017-07-31T04:44:03.258Z,74.4
2017-07-31T04:45:02.721Z,74.5
2017-07-31T04:46:02.299Z,74.6
2017-07-31T04:47:01.254Z,74.7
2017-07-31T04:48:00.952Z,74.7
2017-07-31T04:49:00.145Z,74.7
2017-07-31T04:50:59.114Z,74.7
2017-07-31T04:51:58.306Z,74.6
2017-07-31T04:52:57.890Z,74.6
2017-07-31T04:53:57.086Z,74.6
2017-07-31T04:54:56.164Z,74.7
2017-07-31T04:55:55.865Z,74.9
2017-07-31T04:56:54.811Z,74.8
2017-07-31T04:57:54.154Z,74.9
2017-07-31T04:58:53.728Z,74.8
2017-07-31T04:59:53.309Z,74.6
2017-07-31T05:01:51.657Z,74.6
2017-07-31T05:02:51.122Z,74.5
2017-07-31T05:03:50.699Z,74.3
2017-07-31T05:04:50.035Z,74
2017-07-31T05:05:49.220Z,73.9
2017-07-31T05:06:48.916Z,73.7
2017-07-31T05:07:48.112Z,73
2017-07-31T05:08:47.309Z,72.7
2017-07-31T05:09:47.013Z,72.2
2017-07-31T05:11:45.469Z,72.2
2017-07-31T05:12:44.680Z,71.1
2017-07-31T05:13:44.259Z,70
2017-07-31T05:15:42.850Z,69.1
2017-07-31T05:16:41.922Z,68.5
2017-07-31T05:17:41.662Z,68.6
2017-07-31T05:18:40.860Z,68.3
2017-07-31T05:19:40.317Z,68.2
2017-07-31T05:20:39.897Z,67.5
2017-07-31T05:21:39.099Z,67.1
2017-07-31T05:22:38.549Z,66.5
2017-07-31T05:23:37.625Z,66.5
2017-07-31T05:24:37.322Z,66.1
2017-07-31T05:25:36.524Z,65.9
2017-07-31T05:26:35.721Z,65.8
2017-07-31T05:27:34.935Z,65.4
2017-07-31T05:28:34.638Z,65.4
2017-07-31T05:29:33.720Z,65.4
2017-07-31T05:30:33.314Z,64.9
2017-07-31T05:31:32.523Z,64.4
2017-07-31T05:32:31.726Z,64.8
2017-07-31T05:33:31.418Z,64.1
2017-07-31T05:34:30.611Z,63.8
2017-07-31T05:35:29.809Z,63.6
2017-07-31T05:36:29.390Z,63.3
2017-07-31T05:37:28.586Z,63.4
2017-07-31T05:38:28.291Z,63.4
2017-07-31T05:39:27.373Z,63.3
2017-07-31T05:40:26.581Z,62.4
2017-07-31T05:40:57.082Z,62.4
2017-07-31T05:41:27.350Z,62.3
2017-07-31T05:41:57.859Z,62.3
2017-07-31T05:42:28.236Z,62.2
2017-07-31T05:42:58.746Z,62.2
2017-07-31T05:43:29.132Z,62.1
2017-07-31T05:43:59.537Z,62.1
2017-07-31T05:44:30.054Z,62.3
2017-07-31T05:45:00.323Z,62.3
2017-07-31T05:46:22.687Z,62.3
2017-07-31T05:47:22.385Z,62.6
2017-07-31T05:48:21.458Z,62.3
2017-07-31T05:49:21.164Z,61.7
2017-07-31T05:50:20.350Z,61.9
2017-07-31T05:51:19.324Z,62
2017-07-31T05:52:19.027Z,62
2017-07-31T05:53:18.489Z,62.1
2017-07-31T05:54:17.684Z,62.3
2017-07-31T05:54:48.194Z,62.3
2017-07-31T05:55:18.607Z,62.3
2017-07-31T05:56:16.686Z,60.8
2017-07-31T05:57:15.763Z,60.6
2017-07-31T05:58:14.832Z,60.2
2017-07-31T05:59:14.411Z,59.8
2017-07-31T06:00:13.893Z,59.5
2017-07-31T06:01:12.971Z,59.7
2017-07-31T06:02:12.660Z,59.7
2017-07-31T06:03:11.739Z,59.7
2017-07-31T06:04:11.318Z,59.5
2017-07-31T06:05:10.901Z,59.3
2017-07-31T06:06:09.971Z,59
2017-07-31T06:07:09.166Z,58.3
2017-07-31T06:08:08.755Z,58.6
2017-07-31T06:09:08.216Z,57.8
2017-07-31T06:10:07.298Z,57.6
2017-07-31T06:11:06.997Z,57.6
2017-07-31T06:12:06.201Z,57.2
2017-07-31T06:12:36.467Z,57.2
2017-07-31T06:13:06.865Z,56.7
2017-07-31T06:13:37.255Z,56.7
2017-07-31T06:14:07.637Z,57
2017-07-31T06:14:38.021Z,57
2017-07-31T06:16:03.174Z,56.9
2017-07-31T06:17:02.770Z,56.8
2017-07-31T06:21:59.922Z,56.1
2017-07-31T06:22:58.995Z,56.1
2017-07-31T06:23:58.576Z,55.9
2017-07-31T06:24:57.782Z,55.6
2017-07-31T06:25:57.366Z,55.6
2017-07-31T06:26:56.337Z,55.1
2017-07-31T06:27:56.054Z,54.9
2017-07-31T06:28:55.137Z,54.6
2017-07-31T06:29:54.711Z,55
2017-07-31T06:30:53.900Z,55.1
2017-07-31T06:31:53.487Z,55.1
2017-07-31T06:32:53.069Z,55
2017-07-31T06:33:52.262Z,55.2
2017-07-31T06:35:50.845Z,54.3
2017-07-31T06:36:50.318Z,54.3
2017-07-31T06:37:49.794Z,54.3
2017-07-31T06:39:48.266Z,54.3
2017-07-31T06:40:47.734Z,54.4
2017-07-31T06:41:47.431Z,53.9
2017-07-31T06:42:46.613Z,54
2017-07-31T06:43:45.803Z,54.4
2017-07-31T06:44:45.148Z,54.4
2017-07-31T06:45:44.725Z,54.1
2017-07-31T06:46:44.300Z,54
2017-07-31T06:47:43.260Z,54
2017-07-31T06:48:42.842Z,53.6
2017-07-31T06:49:42.432Z,53.3
2017-07-31T06:50:12.820Z,53.3
2017-07-31T06:50:43.338Z,53
2017-07-31T06:51:13.838Z,53
2017-07-31T06:51:44.228Z,52.5
2017-07-31T06:52:40.278Z,52.5
2017-07-31T06:53:39.355Z,52.5
2017-07-31T06:54:38.813Z,52.5
2017-07-31T06:56:37.793Z,52.6
2017-07-31T06:57:37.377Z,52.4
2017-07-31T06:58:36.454Z,52.1
2017-07-31T06:59:36.154Z,52.6
2017-07-31T07:00:35.365Z,52.1
2017-07-31T07:01:34.561Z,51.7
2017-07-31T07:02:34.265Z,52.7
2017-07-31T07:03:33.230Z,52.2
2017-07-31T07:04:32.939Z,51.9
2017-07-31T07:05:31.906Z,51.8
2017-07-31T07:06:31.610Z,51.4
2017-07-31T07:07:31.080Z,51.4
2017-07-31T07:08:30.664Z,51.7
2017-07-31T07:09:29.757Z,52
2017-07-31T07:10:28.964Z,52
2017-07-31T07:11:28.683Z,52
2017-07-31T07:12:27.878Z,52.2
2017-07-31T07:13:27.580Z,51.4
2017-07-31T07:14:26.778Z,51.3
2017-07-31T07:15:26.356Z,50.6
2017-07-31T07:16:25.318Z,50.6
2017-07-31T07:17:25.017Z,50.9
2017-07-31T07:18:24.211Z,50.8
2017-07-31T07:19:23.895Z,51.1
2017-07-31T07:20:23.085Z,51.1
2017-07-31T07:20:53.586Z,51.1
2017-07-31T07:21:23.974Z,50.3
2017-07-31T07:21:54.359Z,50.3
2017-07-31T07:22:24.884Z,50.6
2017-07-31T07:22:55.383Z,50.6
2017-07-31T07:24:20.751Z,50.8
2017-07-31T07:25:19.940Z,50.7
2017-07-31T07:26:19.636Z,50.7
2017-07-31T07:27:18.720Z,50.7
2017-07-31T07:28:18.430Z,50.7
2017-07-31T07:29:17.625Z,50.4
2017-07-31T07:30:16.823Z,50.3
2017-07-31T07:31:16.520Z,50.3
2017-07-31T07:32:15.728Z,49.5
2017-07-31T07:33:15.432Z,49.1
2017-07-31T07:34:14.507Z,49.3
2017-07-31T07:35:13.972Z,48.9
2017-07-31T07:36:13.310Z,49.4
2017-07-31T07:37:13.014Z,49.2
2017-07-31T07:38:12.218Z,46.6
2017-07-31T07:39:11.697Z,46.3
2017-07-31T07:40:10.903Z,45
2017-07-31T07:41:10.476Z,44.6
2017-07-31T07:42:09.678Z,43.6
2017-07-31T07:43:09.397Z,43.2
2017-07-31T07:44:08.605Z,43.2
2017-07-31T07:45:08.307Z,43.2
2017-07-31T07:46:07.498Z,43.1
2017-07-31T07:47:06.693Z,43.4
2017-07-31T07:48:06.403Z,42.3
2017-07-31T07:49:05.595Z,40.7
2017-07-31T07:50:05.290Z,41.1
2017-07-31T07:51:04.634Z,41.1
2017-07-31T07:52:04.224Z,41.1
2017-07-31T07:52:34.605Z,41.1
2017-07-31T07:53:05.098Z,41.1
2017-07-31T07:54:02.769Z,41.1
2017-07-31T07:55:02.236Z,41
2017-07-31T07:56:01.441Z,40.6
2017-07-31T07:57:00.918Z,41
2017-07-31T07:58:00.384Z,41
2017-07-31T07:59:00.073Z,40.9
2017-07-31T07:59:59.266Z,41.1
2017-07-31T08:00:58.980Z,41.1
2017-07-31T08:01:58.173Z,40.7
2017-07-31T08:02:57.375Z,40.9
2017-07-31T08:03:56.968Z,41.1
2017-07-31T08:04:56.667Z,41
2017-07-31T08:05:55.865Z,40.9
2017-07-31T08:06:55.460Z,40.7
2017-07-31T08:07:54.537Z,40.7
2017-07-31T08:08:54.120Z,40.7
2017-07-31T08:09:53.698Z,40.5
2017-07-31T08:10:52.537Z,40
2017-07-31T08:11:52.404Z,40.2
2017-07-31T08:12:51.875Z,40.2
2017-07-31T08:13:22.263Z,40.2
2017-07-31T08:13:52.526Z,40.6
2017-07-31T08:14:22.815Z,40.6
2017-07-31T08:14:53.204Z,40.7
2017-07-31T08:15:23.709Z,40.7
2017-07-31T08:16:49.479Z,40.3
2017-07-31T08:17:49.071Z,40.3
2017-07-31T08:18:48.267Z,39.8
2017-07-31T08:19:47.961Z,39.8
2017-07-31T08:20:47.027Z,39.8
2017-07-31T08:22:46.099Z,40.3
2017-07-31T08:23:45.670Z,39.9
2017-07-31T08:24:44.741Z,39.9
2017-07-31T08:25:44.428Z,40
2017-07-31T08:26:44.001Z,40.3
2017-07-31T08:27:43.192Z,40.6
2017-07-31T08:28:42.657Z,40.6
2017-07-31T08:29:42.238Z,40.5
2017-07-31T08:30:41.600Z,39.9
2017-07-31T08:31:41.296Z,39.8
2017-07-31T08:32:40.495Z,40.3
2017-07-31T08:33:39.958Z,40.5
2017-07-31T08:34:39.669Z,40.5
2017-07-31T08:35:38.858Z,40.4
2017-07-31T08:36:38.561Z,39.9
2017-07-31T08:37:37.534Z,39.8
2017-07-31T08:38:36.998Z,39
2017-07-31T08:39:36.697Z,39
2017-07-31T08:40:36.390Z,38.8
2017-07-31T08:41:35.591Z,39.2
2017-07-31T08:42:35.296Z,37.5
2017-07-31T08:43:34.497Z,37.7
2017-07-31T08:44:34.198Z,37.5
2017-07-31T08:45:33.283Z,37.2
2017-07-31T08:46:03.795Z,37.2
2017-07-31T08:46:34.299Z,36.7
2017-07-31T08:47:32.246Z,36.7
2017-07-31T08:48:31.718Z,36.6
2017-07-31T08:49:31.166Z,37
2017-07-31T08:50:30.638Z,36.3
2017-07-31T08:51:30.220Z,36.3
2017-07-31T08:52:29.563Z,36.6
2017-07-31T08:53:29.262Z,36.6
2017-07-31T08:54:28.718Z,36.7
2017-07-31T08:55:27.694Z,36.9
2017-07-31T08:56:27.656Z,36.8
2017-07-31T08:57:26.856Z,36.9
2017-07-31T08:58:26.311Z,37.2
2017-07-31T08:59:25.881Z,36.8
2017-07-31T09:00:25.604Z,36.7
2017-07-31T09:01:24.686Z,36.4
2017-07-31T09:01:55.085Z,36.4
2017-07-31T09:03:23.857Z,36.6
2017-07-31T09:04:22.694Z,37.2
2017-07-31T09:05:22.656Z,37.3
2017-07-31T09:06:22.354Z,37.4
2017-07-31T09:08:20.833Z,36.7
2017-07-31T09:09:20.417Z,36.9
2017-07-31T09:10:20.009Z,36.8
2017-07-31T09:11:19.704Z,36.5
2017-07-31T09:12:18.904Z,36.3
2017-07-31T09:13:18.480Z,36.5
2017-07-31T09:14:18.065Z,36.7
2017-07-31T09:15:17.261Z,36.1
2017-07-31T09:16:16.845Z,35.9
2017-07-31T09:17:16.034Z,36.1
2017-07-31T09:18:15.608Z,36.4
2017-07-31T09:19:15.304Z,36
2017-07-31T09:20:14.514Z,36.3
2017-07-31T09:21:14.214Z,36.3
2017-07-31T09:22:13.677Z,36.1
2017-07-31T09:23:12.877Z,36.1
2017-07-31T09:24:12.450Z,36.1
2017-07-31T09:24:42.593Z,36.1
2017-07-31T09:25:13.370Z,36.1
2017-07-31T09:26:11.553Z,36.1
2017-07-31T09:27:11.129Z,35.6
2017-07-31T09:28:10.317Z,35.8
2017-07-31T09:29:10.020Z,36.6
2017-07-31T09:30:09.488Z,37
2017-07-31T09:31:08.684Z,37
2017-07-31T09:32:08.267Z,36.3
2017-07-31T09:33:07.847Z,36.8
2017-07-31T09:34:06.925Z,36.7
2017-07-31T09:35:06.653Z,37.1
2017-07-31T09:36:06.123Z,37.8
2017-07-31T09:37:05.813Z,37.3
2017-07-31T09:38:05.034Z,37
2017-07-31T09:39:04.730Z,37
2017-07-31T09:40:03.802Z,36.3
2017-07-31T09:41:03.382Z,36.3
2017-07-31T09:42:03.096Z,36.6
2017-07-31T09:43:02.447Z,37
2017-07-31T09:44:02.147Z,36.1
2017-07-31T09:45:01.219Z,36.5
2017-07-31T09:46:00.807Z,36.3
2017-07-31T09:47:00.524Z,36.3
2017-07-31T09:47:59.988Z,36.1
2017-07-31T09:48:59.689Z,36.6
2017-07-31T09:49:58.880Z,36.4
2017-07-31T09:50:58.452Z,37.1
2017-07-31T09:51:58.035Z,36.8
2017-07-31T09:52:57.117Z,36.7
2017-07-31T09:53:27.631Z,36.7
2017-07-31T09:53:58.136Z,37.1
2017-07-31T09:54:28.425Z,37.1
2017-07-31T09:54:58.820Z,36.5
2017-07-31T09:55:29.338Z,36.5
2017-07-31T09:55:59.836Z,36.5
2017-07-31T09:56:30.341Z,36.5
2017-07-31T09:57:55.094Z,36.5
2017-07-31T09:58:54.283Z,35.9
2017-07-31T09:59:53.864Z,37
2017-07-31T10:00:53.551Z,37.2
2017-07-31T10:01:52.499Z,36.3
2017-07-31T10:02:52.200Z,36.3
2017-07-31T10:03:51.893Z,36.5
2017-07-31T10:04:51.078Z,37.4
2017-07-31T10:05:50.665Z,36.9
2017-07-31T10:06:50.249Z,37.3
2017-07-31T10:07:20.913Z,37.3
2017-07-31T10:07:51.301Z,36.8
2017-07-31T10:08:49.019Z,36.6
2017-07-31T10:09:48.603Z,37
2017-07-31T10:10:48.172Z,37.6
2017-07-31T10:11:47.874Z,37.9
2017-07-31T10:12:46.955Z,36.7
2017-07-31T10:13:46.416Z,36.7
2017-07-31T10:14:45.879Z,36.7
2017-07-31T10:15:45.594Z,36.7
2017-07-31T10:16:45.174Z,38.1
2017-07-31T10:17:44.628Z,38.1
2017-07-31T10:18:44.328Z,37.8
2017-07-31T10:19:43.522Z,38.5
2017-07-31T10:20:43.227Z,38.4
2017-07-31T10:21:42.818Z,37.4
2017-07-31T10:22:42.022Z,37.7
2017-07-31T10:23:41.722Z,37.4
2017-07-31T10:24:41.188Z,37.8
2017-07-31T10:25:40.655Z,38.3
2017-07-31T10:26:40.368Z,38.6
2017-07-31T10:27:10.868Z,38.6
2017-07-31T10:28:39.515Z,38.5
2017-07-31T10:29:38.482Z,38.7
2017-07-31T10:30:38.065Z,38.7
2017-07-31T10:32:37.414Z,37.2
2017-07-31T10:33:36.605Z,37.4
2017-07-31T10:34:36.297Z,37.5
2017-07-31T10:35:36.005Z,38.2
2017-07-31T10:36:35.079Z,37.3
2017-07-31T10:37:34.797Z,37.5
2017-07-31T10:38:34.513Z,37.2
2017-07-31T10:39:34.105Z,38.1
2017-07-31T10:41:32.710Z,38.4
2017-07-31T10:42:32.426Z,38.8
2017-07-31T10:43:02.935Z,38.8
2017-07-31T10:43:33.331Z,38.9
2017-07-31T10:44:31.412Z,38.5
2017-07-31T10:45:31.117Z,37.5
2017-07-31T10:46:30.316Z,38
2017-07-31T10:47:29.896Z,38
2017-07-31T10:48:29.243Z,38
2017-07-31T10:49:28.705Z,39
2017-07-31T10:50:28.157Z,38
2017-07-31T10:55:25.799Z,38
2017-07-31T10:56:25.252Z,37
2017-07-31T10:57:25.219Z,37.8
2017-07-31T10:58:24.683Z,37.5
2017-07-31T10:59:24.267Z,38.1
2017-07-31T11:00:23.343Z,37.5
2017-07-31T11:01:23.436Z,37.5
2017-07-31T11:02:22.641Z,38.1
2017-07-31T11:03:22.221Z,37.9
2017-07-31T11:04:21.935Z,37.9
2017-07-31T11:04:52.317Z,37.9
2017-07-31T11:06:20.700Z,37.6
2017-07-31T11:07:20.291Z,37.4
2017-07-31T11:08:20.002Z,37.4
2017-07-31T11:09:19.205Z,36.6
2017-07-31T11:10:18.900Z,37
2017-07-31T11:11:18.605Z,37.6
2017-07-31T11:12:17.807Z,37.9
2017-07-31T11:13:17.391Z,38.1
2017-07-31T11:14:17.006Z,38.3
2017-07-31T11:15:16.715Z,37.6
2017-07-31T11:16:15.791Z,38.2
2017-07-31T11:17:15.504Z,38.5
2017-07-31T11:18:15.082Z,39.6
2017-07-31T11:19:14.425Z,37.7
2017-07-31T11:20:14.136Z,38.1
2017-07-31T11:21:13.835Z,38.5
2017-07-31T11:22:13.549Z,38.5
2017-07-31T11:23:12.740Z,38.7
2017-07-31T11:24:12.441Z,38.7
2017-07-31T11:25:11.786Z,38.6
2017-07-31T11:26:11.372Z,38.4
2017-07-31T11:27:10.957Z,39.2
2017-07-31T11:28:10.666Z,38.7
2017-07-31T11:29:10.125Z,38.8
2017-07-31T11:30:09.810Z,38.8
2017-07-31T11:31:08.882Z,38.9
2017-07-31T11:32:08.465Z,39.2
2017-07-31T11:33:08.036Z,38.8
2017-07-31T11:34:07.614Z,39.2
2017-07-31T11:34:37.994Z,39.2
2017-07-31T11:35:08.394Z,39.1
2017-07-31T11:35:38.779Z,39.1
2017-07-31T11:36:09.280Z,38.3
2017-07-31T11:36:39.668Z,38.3
2017-07-31T11:37:10.050Z,38.4
2017-07-31T11:37:40.443Z,38.4
2017-07-31T11:38:10.716Z,38.7
2017-07-31T11:38:40.970Z,38.7
2017-07-31T11:40:04.714Z,39.7
2017-07-31T11:41:04.413Z,39.7
2017-07-31T11:42:04.102Z,39.1
2017-07-31T11:43:03.685Z,39.2
2017-07-31T11:44:03.384Z,39.7
2017-07-31T11:45:02.592Z,40.3
2017-07-31T11:46:02.177Z,40.3
2017-07-31T11:47:01.757Z,40.9
2017-07-31T11:48:01.417Z,40.7
2017-07-31T11:48:31.807Z,40.7
2017-07-31T11:49:02.328Z,40.4
2017-07-31T11:49:32.829Z,40.4
2017-07-31T11:51:00.220Z,40
2017-07-31T11:51:59.419Z,40.4
2017-07-31T11:52:59.125Z,39.5
2017-07-31T11:53:58.823Z,38.7
2017-07-31T11:54:57.905Z,38.7
2017-07-31T11:55:57.488Z,38.7
2017-07-31T11:56:57.336Z,38.7
2017-07-31T11:57:56.909Z,40
2017-07-31T11:58:56.608Z,40.5
2017-07-31T12:00:55.458Z,40.3
2017-07-31T12:01:55.143Z,40.7
2017-07-31T12:02:54.854Z,40.8
2017-07-31T12:03:54.449Z,41.2
2017-07-31T12:04:53.654Z,41.5
2017-07-31T12:05:53.236Z,41.5
2017-07-31T12:06:52.931Z,41.2
2017-07-31T12:07:52.401Z,41
2017-07-31T12:08:22.934Z,41
2017-07-31T12:09:51.710Z,41.6
2017-07-31T12:10:51.287Z,41.2
2017-07-31T12:11:50.483Z,41
2017-07-31T12:12:50.450Z,41.1
2017-07-31T12:13:49.640Z,41.1
2017-07-31T12:14:49.217Z,41.1
2017-07-31T12:15:48.789Z,40.6
2017-07-31T12:16:48.382Z,40.8
2017-07-31T12:17:48.216Z,41.2
2017-07-31T12:18:47.796Z,41.3
2017-07-31T12:19:47.494Z,41
2017-07-31T12:20:46.585Z,41.8
2017-07-31T12:21:46.182Z,40.9
2017-07-31T12:22:45.759Z,41.4
2017-07-31T12:23:45.346Z,41.5
2017-07-31T12:24:44.819Z,41.9
2017-07-31T12:25:44.407Z,41.9
2017-07-31T12:26:44.253Z,42
2017-07-31T12:27:43.717Z,42.1
2017-07-31T12:28:43.175Z,41.9
2017-07-31T12:29:43.439Z,42
2017-07-31T12:30:42.634Z,41.9
2017-07-31T12:31:13.145Z,41.9
2017-07-31T12:32:41.807Z,42.1
2017-07-31T12:33:41.511Z,42.2
2017-07-31T12:34:40.698Z,42.3
2017-07-31T12:35:40.785Z,42
2017-07-31T12:36:40.354Z,41.4
2017-07-31T12:37:39.944Z,41.3
2017-07-31T12:38:39.147Z,41.6
2017-07-31T12:39:38.846Z,42.1
2017-07-31T12:40:38.425Z,42.2
2017-07-31T12:41:38.008Z,42.6
2017-07-31T12:42:37.717Z,42.4
2017-07-31T12:43:37.423Z,42.4
2017-07-31T12:44:36.623Z,41.9
2017-07-31T12:45:35.859Z,41.5
2017-07-31T12:46:36.064Z,41.7
2017-07-31T12:47:06.577Z,41.7
2017-07-31T12:47:36.980Z,42.1
2017-07-31T12:48:07.488Z,42.1
2017-07-31T12:48:37.899Z,42.4
2017-07-31T12:49:34.570Z,42.4
2017-07-31T12:50:34.544Z,42.4
2017-07-31T12:51:34.007Z,42.5
2017-07-31T12:52:33.603Z,42.4
2017-07-31T12:53:33.176Z,42.5
2017-07-31T12:54:32.521Z,42.4
2017-07-31T12:55:32.001Z,42.2
2017-07-31T12:56:32.090Z,42.2
2017-07-31T12:57:31.177Z,42